Time;durP1;ratioP1;P1;durP2;ratioP2;P2;SDS_P1;SDS_P2;PMS_P1;PMS_P2;Temp;Humidity;BMP_temperature;BMP_pressure;BME280_temperature;BME280_humidity;BME280_pressure;Samples;Min_cycle;Max_cycle;Signal;HPM_P1;HPM_P2
2021/01/21 00:01:33;;;;;;;2.63;1.60;;;11.50;99.90;;;;;;5081972;28;20292;-84
2021/01/21 00:03:59;;;;;;;2.90;1.90;;;11.60;99.90;;;;;;5083301;28;20651;-81
2021/01/21 00:06:24;;;;;;;3.23;1.90;;;11.50;99.90;;;;;;5079340;28;20203;-84
2021/01/21 00:08:50;;;;;;;6.90;2.60;;;11.60;99.90;;;;;;5083618;28;20544;-81
2021/01/21 00:11:16;;;;;;;4.50;1.90;;;11.60;99.90;;;;;;5077029;28;20716;-84
2021/01/21 00:13:41;;;;;;;2.77;2.10;;;11.60;99.90;;;;;;5073077;28;20213;-83
2021/01/21 00:16:07;;;;;;;5.47;2.00;;;11.60;99.90;;;;;;5082950;28;20222;-81
2021/01/21 00:18:32;;;;;;;4.83;2.27;;;11.60;99.90;;;;;;5080740;28;20186;-84
2021/01/21 00:20:58;;;;;;;4.53;2.13;;;11.60;99.90;;;;;;5085244;28;20198;-83
2021/01/21 00:23:23;;;;;;;5.00;2.07;;;11.50;99.90;;;;;;5066164;28;20198;-83
2021/01/21 00:25:50;;;;;;;6.73;1.73;;;11.60;99.90;;;;;;5077699;28;20245;-83
2021/01/21 00:28:17;;;;;;;4.43;2.30;;;11.60;99.90;;;;;;5074577;28;20183;-83
2021/01/21 00:30:45;;;;;;;4.43;1.90;;;11.70;99.90;;;;;;5078987;28;20193;-84
2021/01/21 00:33:10;;;;;;;5.17;2.43;;;11.70;99.90;;;;;;5076526;28;20218;-83
2021/01/21 00:35:36;;;;;;;3.53;1.90;;;11.70;99.90;;;;;;5069650;28;20206;-82
2021/01/21 00:38:02;;;;;;;2.87;1.93;;;11.60;99.90;;;;;;5082421;28;20241;-84
2021/01/21 00:40:27;;;;;;;1.90;1.50;;;11.70;99.90;;;;;;5074829;28;20573;-82
2021/01/21 00:42:53;;;;;;;4.93;2.63;;;11.70;99.90;;;;;;5075640;28;20170;-83
2021/01/21 00:45:19;;;;;;;5.50;1.97;;;11.70;99.90;;;;;;5071352;28;20186;-83
2021/01/21 00:47:44;;;;;;;4.17;2.10;;;11.60;99.90;;;;;;5084677;28;20175;-82
2021/01/21 00:50:10;;;;;;;4.67;2.17;;;11.70;99.90;;;;;;5090046;28;20182;-84
2021/01/21 00:52:36;;;;;;;6.50;2.00;;;11.70;99.90;;;;;;5086102;28;20182;-83
2021/01/21 00:55:02;;;;;;;2.60;2.00;;;11.60;99.90;;;;;;5075710;28;20233;-83
2021/01/21 00:57:27;;;;;;;4.53;1.93;;;11.60;99.90;;;;;;5078109;28;20666;-82
2021/01/21 00:59:53;;;;;;;4.17;2.00;;;11.50;99.90;;;;;;5077416;28;20175;-84
2021/01/21 01:02:18;;;;;;;3.07;2.17;;;11.50;99.90;;;;;;5078858;28;20213;-84
2021/01/21 01:04:44;;;;;;;3.27;1.93;;;11.50;99.90;;;;;;5081806;28;20183;-82
2021/01/21 01:07:10;;;;;;;4.30;2.40;;;11.50;99.90;;;;;;5073614;28;20211;-82
2021/01/21 01:09:35;;;;;;;4.53;2.23;;;11.60;99.90;;;;;;5091093;28;20186;-83
2021/01/21 01:12:01;;;;;;;2.80;2.13;;;11.60;99.90;;;;;;5077145;28;20215;-83
2021/01/21 01:14:26;;;;;;;3.23;2.00;;;11.60;99.90;;;;;;5085440;28;20183;-84
2021/01/21 01:16:52;;;;;;;7.97;2.27;;;11.70;99.90;;;;;;5054150;28;20236;-82
2021/01/21 01:19:18;;;;;;;3.60;1.83;;;11.50;99.90;;;;;;5073615;28;20600;-81
2021/01/21 01:21:44;;;;;;;3.67;1.90;;;11.60;99.90;;;;;;5074590;28;20203;-83
2021/01/21 01:24:10;;;;;;;4.03;2.17;;;11.60;99.90;;;;;;5075181;28;20183;-83
2021/01/21 01:26:36;;;;;;;5.00;2.53;;;11.60;99.90;;;;;;5079270;28;20182;-83
2021/01/21 01:29:02;;;;;;;5.90;2.47;;;11.60;99.90;;;;;;5073364;28;20707;-83
2021/01/21 01:31:27;;;;;;;5.90;2.20;;;11.50;99.90;;;;;;5078890;28;20186;-81
2021/01/21 01:33:53;;;;;;;3.53;2.17;;;11.30;99.90;;;;;;5083727;28;20214;-81
2021/01/21 01:36:19;;;;;;;4.80;2.23;;;11.00;99.90;;;;;;5075602;28;20660;-81
2021/01/21 01:38:44;;;;;;;3.83;2.47;;;10.70;99.90;;;;;;5080592;28;20194;-82
2021/01/21 01:41:10;;;;;;;3.93;2.20;;;10.60;99.90;;;;;;5084047;28;20237;-83
2021/01/21 01:43:36;;;;;;;4.83;2.40;;;10.60;99.90;;;;;;5077340;28;20190;-83
2021/01/21 01:46:03;;;;;;;6.63;2.70;;;10.50;99.90;;;;;;5083352;28;20550;-81
2021/01/21 01:48:29;;;;;;;5.47;2.47;;;10.60;99.90;;;;;;5077119;28;20186;-82
2021/01/21 01:50:55;;;;;;;4.37;2.27;;;10.60;99.90;;;;;;5081426;28;20190;-82
2021/01/21 01:53:21;;;;;;;5.10;2.40;;;10.60;99.90;;;;;;5083829;28;20179;-83
2021/01/21 01:55:46;;;;;;;3.27;2.47;;;10.60;99.90;;;;;;5065208;28;20282;-82
2021/01/21 01:58:15;;;;;;;6.57;2.53;;;10.60;99.90;;;;;;5075899;28;20187;-82
2021/01/21 02:00:44;;;;;;;3.33;2.40;;;10.70;99.90;;;;;;5078491;28;20255;-82
2021/01/21 02:03:11;;;;;;;9.37;2.60;;;10.70;99.90;;;;;;5086873;28;20213;-84
2021/01/21 02:05:36;;;;;;;6.37;2.60;;;10.70;99.90;;;;;;5072101;28;20698;-83
2021/01/21 02:08:02;;;;;;;3.73;2.30;;;10.70;99.90;;;;;;5080658;28;20273;-83
2021/01/21 02:10:28;;;;;;;4.27;2.40;;;10.60;99.90;;;;;;5088447;28;20183;-83
2021/01/21 02:13:14;;;;;;;4.10;2.60;;;10.70;99.90;;;;;;5097249;28;20187;-83
2021/01/21 02:16:14;;;;;;;4.50;2.60;;;10.70;99.90;;;;;;5090805;28;20315;-83
2021/01/21 02:18:56;;;;;;;3.83;2.37;;;10.80;99.90;;;;;;5077721;28;20187;-83
2021/01/21 02:21:56;;;;;;;4.13;2.43;;;10.70;99.90;;;;;;5079740;28;20670;-82
2021/01/21 02:24:24;;;;;;;3.30;2.30;;;10.70;99.90;;;;;;5088599;28;20699;-82
2021/01/21 02:26:56;;;;;;;5.20;2.57;;;10.80;99.90;;;;;;5086659;28;20655;-82
2021/01/21 02:29:35;;;;;;;3.03;2.30;;;10.70;99.90;;;;;;5080578;28;20175;-82
2021/01/21 02:32:06;;;;;;;4.20;2.37;;;10.50;99.90;;;;;;5079099;28;20281;-81
2021/01/21 02:34:38;;;;;;;3.60;2.60;;;10.50;99.90;;;;;;5084864;28;20605;-83
2021/01/21 02:37:08;;;;;;;4.83;2.27;;;10.40;99.90;;;;;;5078055;28;20203;-82
2021/01/21 02:39:36;;;;;;;3.27;2.17;;;10.40;99.90;;;;;;5082624;28;20179;-83
2021/01/21 02:42:04;;;;;;;4.93;2.60;;;10.30;99.90;;;;;;5085866;28;20610;-83
2021/01/21 02:44:30;;;;;;;3.57;2.40;;;10.20;99.90;;;;;;5080302;28;20272;-81
2021/01/21 02:46:57;;;;;;;4.13;2.50;;;10.20;99.90;;;;;;5068589;28;20279;-81
2021/01/21 02:49:23;;;;;;;4.37;2.60;;;10.20;99.90;;;;;;5080323;28;20183;-82
2021/01/21 02:52:24;;;;;;;4.37;2.90;;;10.20;99.90;;;;;;5083073;28;20596;-81
2021/01/21 02:54:52;;;;;;;2.83;2.40;;;10.30;99.90;;;;;;5078611;28;20198;-82
2021/01/21 02:57:39;;;;;;;3.27;2.50;;;10.40;99.90;;;;;;5086624;28;20197;-83
2021/01/21 03:00:09;;;;;;;3.87;2.63;;;10.50;99.90;;;;;;5085063;28;20193;-85
2021/01/21 03:02:40;;;;;;;5.20;2.50;;;10.50;99.90;;;;;;5090017;28;20217;-83
2021/01/21 03:05:07;;;;;;;3.83;2.40;;;10.60;99.90;;;;;;5088440;28;20225;-81
2021/01/21 03:07:35;;;;;;;4.83;2.20;;;10.70;99.90;;;;;;5082654;28;20186;-83
2021/01/21 03:10:00;;;;;;;5.27;1.80;;;10.70;99.90;;;;;;5080006;28;20202;-81
2021/01/21 03:12:27;;;;;;;6.07;2.03;;;9.90;99.90;;;;;;5077531;28;20232;-80
2021/01/21 03:14:55;;;;;;;4.40;1.80;;;8.80;99.90;;;;;;5081280;28;20186;-82
2021/01/21 03:17:22;;;;;;;6.20;2.00;;;8.10;99.90;;;;;;5079140;28;20175;-81
2021/01/21 03:19:47;;;;;;;4.50;1.67;;;7.60;99.90;;;;;;5076058;28;20179;-80
2021/01/21 03:22:13;;;;;;;8.73;1.90;;;7.50;99.90;;;;;;5077015;28;20209;-81
2021/01/21 03:24:39;;;;;;;4.60;1.70;;;7.40;99.90;;;;;;5079663;28;20194;-82
2021/01/21 03:27:04;;;;;;;5.90;1.70;;;7.30;99.90;;;;;;5083567;28;20658;-81
2021/01/21 03:29:30;;;;;;;4.90;1.53;;;7.20;99.90;;;;;;5086635;28;20551;-81
2021/01/21 03:31:56;;;;;;;5.50;1.90;;;7.10;99.90;;;;;;5087296;28;20193;-80
2021/01/21 03:34:22;;;;;;;5.10;1.90;;;6.90;99.90;;;;;;5079599;28;20179;-81
2021/01/21 03:36:48;;;;;;;6.83;1.80;;;6.90;99.90;;;;;;5075275;28;20657;-83
2021/01/21 03:39:13;;;;;;;6.87;2.17;;;7.00;99.90;;;;;;5093931;28;20257;-82
2021/01/21 03:41:39;;;;;;;6.50;2.17;;;6.90;99.90;;;;;;5077294;28;20297;-81
2021/01/21 03:44:05;;;;;;;7.63;1.90;;;6.80;99.90;;;;;;5078664;28;20591;-81
2021/01/21 03:46:31;;;;;;;7.60;2.17;;;6.90;99.90;;;;;;5079393;28;20227;-81
2021/01/21 03:48:56;;;;;;;7.83;2.20;;;6.90;99.90;;;;;;5079925;28;20541;-82
2021/01/21 03:51:22;;;;;;;7.40;2.17;;;7.00;99.90;;;;;;5084510;28;20700;-82
2021/01/21 03:53:48;;;;;;;4.63;1.97;;;6.90;99.90;;;;;;5089143;28;20653;-82
2021/01/21 03:56:13;;;;;;;7.40;1.87;;;6.90;99.90;;;;;;5084841;28;20193;-82
2021/01/21 03:58:39;;;;;;;6.00;2.00;;;7.00;99.90;;;;;;5077175;28;20197;-83
2021/01/21 04:01:04;;;;;;;5.90;1.90;;;6.90;99.90;;;;;;5079446;28;20225;-82
2021/01/21 04:03:31;;;;;;;4.20;1.80;;;6.90;99.90;;;;;;5084022;28;20170;-84
2021/01/21 04:05:57;;;;;;;8.47;2.20;;;6.90;99.90;;;;;;5084525;28;20206;-81
2021/01/21 04:08:23;;;;;;;6.73;2.00;;;6.80;99.90;;;;;;5077697;28;20174;-82
2021/01/21 04:10:48;;;;;;;4.43;2.00;;;6.90;99.90;;;;;;5086042;28;20205;-83
2021/01/21 04:13:14;;;;;;;6.43;1.93;;;6.80;99.90;;;;;;5076082;28;20236;-83
2021/01/21 04:15:39;;;;;;;11.83;2.37;;;6.80;99.90;;;;;;5084813;28;20174;-82
2021/01/21 04:18:05;;;;;;;4.77;1.80;;;6.70;99.90;;;;;;5082322;28;20197;-82
2021/01/21 04:20:31;;;;;;;4.63;2.03;;;6.70;99.90;;;;;;5093592;28;20196;-81
2021/01/21 04:22:56;;;;;;;3.83;1.87;;;6.70;99.90;;;;;;5092210;28;20627;-83
2021/01/21 04:25:22;;;;;;;7.07;1.70;;;6.70;99.90;;;;;;5076980;28;20177;-83
2021/01/21 04:27:48;;;;;;;7.53;2.00;;;6.70;99.90;;;;;;5092136;28;20223;-84
2021/01/21 04:30:14;;;;;;;5.03;1.70;;;6.70;99.90;;;;;;5085710;28;20668;-82
2021/01/21 04:32:40;;;;;;;8.23;2.23;;;6.80;99.90;;;;;;5082184;28;20201;-82
2021/01/21 04:35:06;;;;;;;8.23;1.87;;;6.80;99.90;;;;;;5080389;28;20220;-83
2021/01/21 04:37:32;;;;;;;6.60;2.27;;;6.70;99.90;;;;;;5088891;28;20294;-83
2021/01/21 04:39:58;;;;;;;7.57;2.00;;;6.70;99.90;;;;;;5072897;28;20725;-84
2021/01/21 04:42:24;;;;;;;4.90;1.80;;;6.70;99.90;;;;;;5073423;28;20276;-83
2021/01/21 04:44:50;;;;;;;10.03;2.43;;;6.60;99.90;;;;;;5060062;28;20587;-85
2021/01/21 04:47:16;;;;;;;7.57;2.10;;;6.70;99.90;;;;;;5078491;28;20634;-84
2021/01/21 04:49:44;;;;;;;8.33;2.17;;;6.70;99.90;;;;;;5074069;28;20221;-82
2021/01/21 04:52:13;;;;;;;8.93;2.30;;;6.70;99.90;;;;;;5086263;28;20226;-83
2021/01/21 04:54:47;;;;;;;6.10;2.10;;;6.80;99.90;;;;;;5082129;28;20642;-85
2021/01/21 04:57:15;;;;;;;8.50;2.23;;;6.70;99.90;;;;;;5088479;28;20182;-84
2021/01/21 04:59:41;;;;;;;9.23;2.40;;;6.80;99.90;;;;;;5089819;28;20190;-84
2021/01/21 05:02:07;;;;;;;7.37;2.57;;;6.80;99.90;;;;;;5073364;28;20214;-82
2021/01/21 05:04:33;;;;;;;9.00;2.40;;;6.80;99.90;;;;;;5065076;28;20533;-85
2021/01/21 05:07:00;;;;;;;10.17;2.40;;;6.80;99.90;;;;;;5076212;28;20211;-83
2021/01/21 05:09:29;;;;;;;9.03;2.53;;;6.80;99.90;;;;;;5087406;28;20192;-84
2021/01/21 05:11:55;;;;;;;10.33;2.80;;;6.80;99.90;;;;;;5074500;28;20223;-82
2021/01/21 05:14:21;;;;;;;9.40;2.40;;;6.80;99.90;;;;;;5082228;28;20198;-83
2021/01/21 05:16:47;;;;;;;7.53;2.40;;;6.60;99.90;;;;;;5074900;28;20223;-82
2021/01/21 05:19:18;;;;;;;8.83;2.83;;;6.60;99.90;;;;;;5089744;28;20204;-83
2021/01/21 05:21:44;;;;;;;9.53;2.83;;;6.50;99.90;;;;;;5086195;28;20207;-84
2021/01/21 05:24:10;;;;;;;11.03;2.90;;;6.50;99.90;;;;;;5074887;28;20708;-83
2021/01/21 05:26:38;;;;;;;9.73;2.57;;;6.50;99.90;;;;;;5086023;28;20177;-85
2021/01/21 05:29:05;;;;;;;11.73;3.20;;;6.50;99.90;;;;;;5087717;28;20198;-82
2021/01/21 05:31:33;;;;;;;11.37;2.83;;;6.50;99.90;;;;;;5058076;28;20193;-82
2021/01/21 05:33:59;;;;;;;12.87;3.00;;;6.50;99.90;;;;;;5082815;28;20289;-83
2021/01/21 05:36:25;;;;;;;14.23;3.37;;;6.50;99.90;;;;;;5095119;28;20217;-82
2021/01/21 05:38:55;;;;;;;12.17;3.17;;;6.50;99.90;;;;;;5092093;28;20528;-82
2021/01/21 05:41:27;;;;;;;10.93;3.20;;;6.50;99.90;;;;;;5075418;28;20201;-82
2021/01/21 05:43:53;;;;;;;9.23;2.80;;;6.60;99.90;;;;;;5073054;28;20638;-83
2021/01/21 05:46:19;;;;;;;12.80;3.33;;;6.60;99.90;;;;;;5092779;28;20257;-81
2021/01/21 05:48:45;;;;;;;12.30;2.90;;;6.70;99.90;;;;;;5085893;28;20183;-83
2021/01/21 05:51:12;;;;;;;8.53;2.93;;;6.80;99.90;;;;;;5079230;28;20644;-83
2021/01/21 05:53:39;;;;;;;12.37;3.20;;;6.70;99.90;;;;;;5087159;28;20174;-82
2021/01/21 05:56:11;;;;;;;13.13;3.30;;;6.70;99.90;;;;;;5066635;28;20674;-83
2021/01/21 05:58:38;;;;;;;13.70;3.53;;;6.70;99.90;;;;;;5085959;28;20272;-84
2021/01/21 06:01:06;;;;;;;14.60;3.67;;;6.50;99.90;;;;;;5084248;28;20222;-83
2021/01/21 06:03:34;;;;;;;13.70;3.63;;;6.60;99.90;;;;;;5086288;28;20174;-83
2021/01/21 06:05:59;;;;;;;8.10;2.87;;;6.50;99.90;;;;;;5082209;28;20216;-82
2021/01/21 06:08:29;;;;;;;14.13;3.00;;;6.40;99.90;;;;;;5070794;28;20179;-83
2021/01/21 06:10:56;;;;;;;14.80;3.50;;;6.30;99.90;;;;;;5080141;28;20268;-82
2021/01/21 06:13:21;;;;;;;14.87;3.53;;;6.30;99.90;;;;;;5085926;28;20269;-82
2021/01/21 06:15:49;;;;;;;12.83;3.10;;;6.20;99.90;;;;;;5077093;28;20217;-82
2021/01/21 06:18:15;;;;;;;16.43;3.40;;;6.20;99.90;;;;;;5084042;28;20186;-83
2021/01/21 06:20:41;;;;;;;11.80;3.17;;;6.20;99.90;;;;;;5095586;28;20201;-83
2021/01/21 06:23:14;;;;;;;9.37;3.23;;;6.20;99.90;;;;;;5095840;28;20653;-82
2021/01/21 06:25:41;;;;;;;11.73;2.93;;;6.30;99.90;;;;;;5090088;28;20190;-83
2021/01/21 06:28:08;;;;;;;13.80;3.47;;;6.40;99.90;;;;;;5088827;28;20171;-84
2021/01/21 06:30:36;;;;;;;10.03;3.57;;;6.30;99.90;;;;;;5092444;28;20630;-83
2021/01/21 06:33:08;;;;;;;11.20;3.33;;;6.20;99.90;;;;;;5088737;28;20188;-83
2021/01/21 06:35:47;;;;;;;13.40;3.53;;;6.20;99.90;;;;;;5076114;28;20256;-82
2021/01/21 06:38:19;;;;;;;23.07;4.83;;;6.20;99.90;;;;;;5082020;28;20197;-82
2021/01/21 06:40:51;;;;;;;14.57;4.00;;;6.20;99.90;;;;;;5081170;28;20276;-81
2021/01/21 06:43:18;;;;;;;15.23;3.80;;;6.10;99.90;;;;;;5079268;28;20186;-81
2021/01/21 06:45:45;;;;;;;13.60;4.17;;;5.90;99.90;;;;;;5085656;28;20178;-82
2021/01/21 06:48:11;;;;;;;13.77;5.03;;;5.90;99.90;;;;;;5086847;28;20174;-81
2021/01/21 06:50:38;;;;;;;11.67;4.03;;;5.80;99.90;;;;;;5089903;28;20311;-83
2021/01/21 06:53:07;;;;;;;17.80;4.40;;;5.90;99.90;;;;;;5090208;28;20589;-84
2021/01/21 06:55:35;;;;;;;18.83;4.30;;;5.90;99.90;;;;;;5088095;28;20182;-80
2021/01/21 06:58:02;;;;;;;12.73;4.30;;;6.00;99.90;;;;;;5084031;28;20547;-82
2021/01/21 07:00:38;;;;;;;11.77;3.30;;;6.20;99.90;;;;;;5085071;28;20186;-75
2021/01/21 07:03:05;;;;;;;17.63;3.80;;;6.30;99.90;;;;;;5086815;28;20193;-82
2021/01/21 07:05:31;;;;;;;11.17;3.20;;;6.40;99.90;;;;;;5089121;28;20169;-81
2021/01/21 07:08:03;;;;;;;14.37;3.93;;;6.30;99.90;;;;;;5095381;28;20191;-82
2021/01/21 07:10:31;;;;;;;12.00;3.03;;;6.40;99.90;;;;;;5080436;28;20190;-82
2021/01/21 07:12:59;;;;;;;15.87;4.27;;;6.40;99.90;;;;;;5093743;28;20178;-83
2021/01/21 07:15:42;;;;;;;13.23;3.40;;;6.30;99.90;;;;;;5073232;28;20181;-82
2021/01/21 07:18:35;;;;;;;14.60;4.20;;;6.40;99.90;;;;;;5082781;28;20171;-82
2021/01/21 07:21:06;;;;;;;14.77;3.40;;;6.50;99.90;;;;;;5089991;28;20190;-81
2021/01/21 07:23:44;;;;;;;14.33;3.67;;;6.50;99.90;;;;;;5083905;28;20230;-81
2021/01/21 07:26:29;;;;;;;9.63;2.73;;;6.50;99.90;;;;;;5081666;28;20186;-83
2021/01/21 07:29:06;;;;;;;8.67;3.17;;;6.50;99.90;;;;;;5094625;28;20182;-82
2021/01/21 07:31:53;;;;;;;13.13;3.07;;;6.60;99.90;;;;;;5093233;28;20177;-83
2021/01/21 07:34:26;;;;;;;10.50;2.70;;;6.60;99.90;;;;;;5094886;28;20214;-81
2021/01/21 07:37:22;;;;;;;13.20;2.87;;;6.50;99.90;;;;;;5086970;28;20621;-81
2021/01/21 07:40:12;;;;;;;8.77;3.07;;;6.50;99.90;;;;;;5080642;28;20186;-82
2021/01/21 07:42:37;;;;;;;12.60;2.37;;;6.40;99.90;;;;;;5084638;28;20198;-84
2021/01/21 07:45:09;;;;;;;11.03;2.97;;;6.40;99.90;;;;;;5094610;28;20181;-82
2021/01/21 07:47:37;;;;;;;11.57;3.07;;;6.50;99.90;;;;;;5086195;28;20174;-81
2021/01/21 07:50:24;;;;;;;12.33;3.03;;;6.40;99.90;;;;;;5091566;28;20631;-83
2021/01/21 07:52:53;;;;;;;10.13;2.37;;;6.50;99.90;;;;;;5092387;28;20270;-82
2021/01/21 07:55:35;;;;;;;12.13;3.10;;;6.50;99.90;;;;;;5080800;28;20181;-83
2021/01/21 07:58:27;;;;;;;10.50;3.17;;;6.60;99.90;;;;;;5082515;28;20209;-81
2021/01/21 08:01:03;;;;;;;15.73;3.07;;;6.70;99.90;;;;;;5086813;28;20202;-82
2021/01/21 08:03:35;;;;;;;14.33;3.20;;;6.70;99.90;;;;;;5093246;28;20190;-82
2021/01/21 08:06:05;;;;;;;5.23;2.20;;;6.70;99.90;;;;;;5101628;28;20237;-83
2021/01/21 08:08:30;;;;;;;7.57;2.50;;;6.60;99.90;;;;;;5094661;28;20188;-84
2021/01/21 08:11:07;;;;;;;9.27;2.50;;;6.60;99.90;;;;;;5074700;28;20201;-81
2021/01/21 08:13:34;;;;;;;11.07;2.77;;;6.50;99.90;;;;;;5079411;28;20178;-83
2021/01/21 08:16:00;;;;;;;10.97;2.50;;;6.50;99.90;;;;;;5075951;28;20286;-82
2021/01/21 08:18:26;;;;;;;13.43;2.90;;;6.50;99.90;;;;;;5079781;28;20197;-83
2021/01/21 08:20:51;;;;;;;14.83;3.27;;;6.70;99.90;;;;;;5076244;28;20629;-82
2021/01/21 08:23:17;;;;;;;12.67;2.93;;;6.70;99.90;;;;;;5082060;28;20191;-83
2021/01/21 08:25:47;;;;;;;9.00;2.90;;;6.70;99.90;;;;;;5084964;28;20312;-82
2021/01/21 08:28:25;;;;;;;11.63;3.10;;;6.70;99.90;;;;;;5087540;28;20179;-82
2021/01/21 08:30:52;;;;;;;12.10;2.90;;;6.70;99.90;;;;;;5083857;28;20182;-82
2021/01/21 08:33:28;;;;;;;10.13;3.47;;;6.60;99.90;;;;;;5078531;28;20208;-82
2021/01/21 08:35:55;;;;;;;13.90;3.10;;;6.70;99.90;;;;;;5083597;28;20186;-83
2021/01/21 08:38:23;;;;;;;9.60;2.83;;;6.80;99.90;;;;;;5076770;28;20217;-81
2021/01/21 08:40:52;;;;;;;8.57;3.00;;;6.70;99.90;;;;;;5081781;28;20209;-82
2021/01/21 08:43:19;;;;;;;5.97;2.37;;;6.90;99.90;;;;;;5074511;28;20237;-82
2021/01/21 08:45:45;;;;;;;10.10;2.70;;;7.10;99.90;;;;;;5069203;28;20175;-82
2021/01/21 08:48:23;;;;;;;6.50;2.63;;;7.40;99.90;;;;;;5080616;28;20661;-82
2021/01/21 08:50:48;;;;;;;7.80;2.77;;;8.30;99.90;;;;;;5081860;28;20566;-81
2021/01/21 08:53:21;;;;;;;9.67;3.30;;;8.30;99.90;;;;;;5057203;28;20194;-82
2021/01/21 08:55:48;;;;;;;9.27;2.50;;;8.00;99.90;;;;;;5087641;28;20284;-82
2021/01/21 08:58:15;;;;;;;17.37;3.53;;;7.60;99.90;;;;;;5087575;28;20319;-83
2021/01/21 09:01:12;;;;;;;8.27;2.87;;;7.50;99.90;;;;;;5082987;28;20304;-82
2021/01/21 09:03:48;;;;;;;8.67;2.60;;;7.30;99.90;;;;;;5062066;28;20186;-83
2021/01/21 09:06:16;;;;;;;12.80;2.67;;;7.20;99.90;;;;;;5087481;28;20240;-83
2021/01/21 09:08:56;;;;;;;12.47;2.80;;;7.60;99.90;;;;;;5086818;28;20178;-83
2021/01/21 09:11:40;;;;;;;7.07;2.17;;;8.30;99.90;;;;;;5087528;28;20416;-82
2021/01/21 09:14:15;;;;;;;9.57;2.80;;;8.10;99.90;;;;;;5078976;28;20183;-83
2021/01/21 09:16:46;;;;;;;10.93;2.37;;;8.00;99.90;;;;;;5072816;28;20185;-83
2021/01/21 09:19:14;;;;;;;9.63;2.70;;;8.30;99.90;;;;;;5077490;28;20292;-84
2021/01/21 09:21:59;;;;;;;9.33;2.80;;;8.00;99.90;;;;;;5080794;28;20215;-84
2021/01/21 09:24:25;;;;;;;10.17;2.57;;;7.90;99.90;;;;;;5081005;28;20591;-84
2021/01/21 09:27:09;;;;;;;10.23;2.73;;;8.00;99.90;;;;;;5084810;28;20170;-82
2021/01/21 09:29:56;;;;;;;8.43;2.40;;;8.10;99.90;;;;;;5072941;28;20221;-83
2021/01/21 09:32:32;;;;;;;11.37;3.37;;;8.10;99.90;;;;;;5083303;28;20197;-83
2021/01/21 09:35:04;;;;;;;8.87;2.70;;;8.00;99.90;;;;;;5073480;28;20728;-84
2021/01/21 09:37:38;;;;;;;10.93;2.80;;;8.00;99.90;;;;;;5081561;28;20213;-82
2021/01/21 09:40:06;;;;;;;6.77;2.60;;;7.90;99.90;;;;;;5079621;28;20524;-82
2021/01/21 09:42:31;;;;;;;8.57;2.57;;;7.90;99.90;;;;;;5083176;28;20197;-83
2021/01/21 09:44:57;;;;;;;11.67;2.53;;;7.70;99.90;;;;;;5064796;28;20320;-83
2021/01/21 09:47:23;;;;;;;7.83;2.23;;;7.80;99.90;;;;;;5078353;28;20207;-84
2021/01/21 09:49:49;;;;;;;7.87;2.33;;;7.90;99.90;;;;;;5082673;28;20178;-83
2021/01/21 09:52:15;;;;;;;9.73;2.77;;;7.90;99.90;;;;;;5081181;28;20196;-82
2021/01/21 09:54:41;;;;;;;7.73;2.40;;;7.90;99.90;;;;;;5080318;28;20670;-83
2021/01/21 09:57:07;;;;;;;7.03;2.37;;;7.80;99.90;;;;;;5082965;28;20204;-82
2021/01/21 09:59:33;;;;;;;8.70;2.57;;;7.80;99.90;;;;;;5077605;28;20186;-84
2021/01/21 10:01:58;;;;;;;9.70;2.43;;;7.90;99.90;;;;;;5094254;28;20245;-84
2021/01/21 10:04:24;;;;;;;8.23;2.37;;;7.80;99.90;;;;;;5086359;28;20194;-86
2021/01/21 10:06:51;;;;;;;10.53;2.40;;;7.80;99.90;;;;;;5073576;28;20193;-84
2021/01/21 10:09:17;;;;;;;7.50;2.60;;;7.80;99.90;;;;;;5086040;28;20241;-84
2021/01/21 10:11:43;;;;;;;12.30;3.07;;;7.90;99.90;;;;;;5088229;28;20564;-84
2021/01/21 10:14:09;;;;;;;7.43;2.60;;;8.00;99.90;;;;;;5096133;28;20183;-84
2021/01/21 10:16:35;;;;;;;8.80;2.43;;;7.90;99.90;;;;;;5091715;28;20279;-84
2021/01/21 10:19:01;;;;;;;6.97;2.30;;;8.00;99.90;;;;;;5096668;28;20693;-84
2021/01/21 10:21:27;;;;;;;6.80;2.57;;;8.10;99.90;;;;;;5090438;28;20183;-84
2021/01/21 10:23:53;;;;;;;8.20;2.50;;;8.20;99.90;;;;;;5099424;28;20185;-84
2021/01/21 10:26:22;;;;;;;6.20;2.23;;;8.20;99.90;;;;;;5086904;28;20166;-82
2021/01/21 10:28:49;;;;;;;10.00;2.57;;;8.30;99.90;;;;;;5090650;28;20225;-84
2021/01/21 10:31:14;;;;;;;6.87;2.47;;;8.20;99.90;;;;;;5088778;28;20239;-83
2021/01/21 10:33:41;;;;;;;7.67;2.37;;;8.10;99.90;;;;;;5098415;28;20190;-84
2021/01/21 10:36:07;;;;;;;6.53;2.87;;;8.10;99.90;;;;;;5092849;28;20182;-84
2021/01/21 10:38:34;;;;;;;9.57;2.30;;;8.00;99.90;;;;;;5095705;28;20550;-84
2021/01/21 10:41:01;;;;;;;9.20;2.73;;;8.00;99.90;;;;;;5096981;28;20232;-84
2021/01/21 10:43:26;;;;;;;9.97;3.07;;;8.00;99.90;;;;;;5098306;28;20208;-84
2021/01/21 10:45:52;;;;;;;8.50;2.80;;;8.00;99.90;;;;;;5094730;28;20582;-83
2021/01/21 10:48:17;;;;;;;6.93;2.20;;;8.00;99.90;;;;;;5094443;28;20199;-83
2021/01/21 10:50:43;;;;;;;6.37;2.43;;;8.10;99.90;;;;;;5091644;28;20252;-83
2021/01/21 10:53:09;;;;;;;9.27;2.37;;;8.10;99.90;;;;;;5092609;28;20548;-84
2021/01/21 10:55:35;;;;;;;8.37;2.90;;;8.10;99.90;;;;;;5090682;28;20241;-83
2021/01/21 10:58:03;;;;;;;9.53;3.30;;;8.20;99.90;;;;;;5087423;28;20579;-84
2021/01/21 11:00:28;;;;;;;8.73;3.33;;;8.30;99.90;;;;;;5093659;28;20697;-85
2021/01/21 11:02:56;;;;;;;7.17;2.97;;;8.50;99.90;;;;;;5080163;28;20171;-84
2021/01/21 11:05:21;;;;;;;8.30;3.43;;;8.60;99.90;;;;;;5061830;28;20175;-84
2021/01/21 11:07:47;;;;;;;5.67;2.47;;;8.60;99.90;;;;;;5080713;28;20190;-83
2021/01/21 11:10:13;;;;;;;9.10;2.30;;;8.50;99.90;;;;;;5077508;28;20634;-81
2021/01/21 11:12:39;;;;;;;6.80;2.30;;;8.50;99.90;;;;;;5078511;28;20171;-81
2021/01/21 11:15:06;;;;;;;7.23;2.23;;;8.60;99.90;;;;;;5079028;28;20179;-80
2021/01/21 11:17:31;;;;;;;6.53;2.63;;;8.60;99.90;;;;;;5084371;28;20186;-82
2021/01/21 11:19:57;;;;;;;9.63;2.40;;;8.70;99.90;;;;;;5100351;28;20554;-80
2021/01/21 11:22:24;;;;;;;11.07;2.50;;;8.50;99.90;;;;;;5100083;28;20255;-80
2021/01/21 11:24:51;;;;;;;13.20;3.07;;;8.50;99.90;;;;;;5098642;28;20181;-81
2021/01/21 11:27:17;;;;;;;7.40;2.57;;;8.40;99.90;;;;;;5079929;28;20210;-83
2021/01/21 11:29:43;;;;;;;7.90;2.53;;;8.50;99.90;;;;;;5088055;28;20240;-80
2021/01/21 11:32:09;;;;;;;10.33;2.77;;;8.60;99.90;;;;;;5097992;28;20254;-80
2021/01/21 11:34:35;;;;;;;9.53;2.70;;;8.60;99.90;;;;;;5098912;28;20216;-80
2021/01/21 11:37:00;;;;;;;11.47;2.73;;;8.50;99.90;;;;;;5079034;28;20199;-81
2021/01/21 11:39:27;;;;;;;7.13;3.10;;;8.40;99.90;;;;;;5077312;28;20175;-80
2021/01/21 11:41:53;;;;;;;12.07;3.10;;;8.40;99.90;;;;;;5094894;28;20202;-82
2021/01/21 11:44:18;;;;;;;13.60;2.80;;;8.40;99.90;;;;;;5102247;28;20189;-81
2021/01/21 11:46:44;;;;;;;8.70;3.17;;;8.50;99.90;;;;;;5086100;28;20179;-82
2021/01/21 11:49:10;;;;;;;10.37;2.60;;;8.70;99.90;;;;;;5069111;28;20183;-81
2021/01/21 11:51:36;;;;;;;7.03;2.20;;;8.70;99.90;;;;;;5105534;28;20170;-82
2021/01/21 11:54:02;;;;;;;6.23;2.50;;;8.60;99.90;;;;;;5101483;28;20166;-83
2021/01/21 11:56:28;;;;;;;9.17;2.47;;;8.60;99.90;;;;;;5096811;28;20512;-82
2021/01/21 11:58:53;;;;;;;6.63;2.77;;;8.50;99.90;;;;;;5098226;28;20320;-81
2021/01/21 12:01:19;;;;;;;7.47;2.80;;;8.50;99.90;;;;;;5085093;28;20689;-81
2021/01/21 12:03:45;;;;;;;5.80;2.57;;;8.70;99.90;;;;;;5075050;28;20175;-81
2021/01/21 12:06:11;;;;;;;9.57;2.70;;;8.60;99.90;;;;;;5076090;28;20215;-82
2021/01/21 12:08:36;;;;;;;8.73;2.60;;;8.60;99.90;;;;;;5095976;28;20174;-81
2021/01/21 12:11:02;;;;;;;8.73;2.47;;;8.60;99.90;;;;;;5092938;28;20185;-81
2021/01/21 12:13:27;;;;;;;8.20;2.87;;;8.60;99.90;;;;;;5078514;28;20697;-81
2021/01/21 12:15:53;;;;;;;9.87;2.37;;;8.60;99.90;;;;;;5088704;28;20211;-82
2021/01/21 12:18:19;;;;;;;7.50;2.33;;;8.60;99.90;;;;;;5077016;28;20184;-82
2021/01/21 12:20:44;;;;;;;7.37;2.40;;;8.70;99.90;;;;;;5077737;28;20175;-82
2021/01/21 12:23:11;;;;;;;6.73;2.20;;;8.70;99.90;;;;;;5076247;28;20178;-82
2021/01/21 12:25:37;;;;;;;7.30;2.53;;;8.80;99.90;;;;;;5075252;28;20179;-82
2021/01/21 12:28:03;;;;;;;9.07;2.90;;;8.90;99.90;;;;;;5082718;28;20262;-81
2021/01/21 12:30:28;;;;;;;11.80;2.10;;;8.90;99.90;;;;;;5101042;28;20230;-84
2021/01/21 12:32:54;;;;;;;8.63;2.90;;;8.70;99.90;;;;;;5104191;28;20196;-81
2021/01/21 12:35:20;;;;;;;6.70;2.00;;;8.70;99.90;;;;;;5082120;28;20182;-80
2021/01/21 12:37:46;;;;;;;6.43;2.37;;;8.80;99.90;;;;;;5057829;28;20194;-82
2021/01/21 12:40:12;;;;;;;9.33;3.10;;;8.70;99.90;;;;;;5075242;28;20221;-81
2021/01/21 12:42:37;;;;;;;7.70;2.60;;;8.70;99.90;;;;;;5081650;28;20529;-81
2021/01/21 12:45:06;;;;;;;6.73;2.03;;;8.70;99.90;;;;;;5076621;28;20636;-81
2021/01/21 12:47:32;;;;;;;4.10;1.80;;;8.60;99.90;;;;;;5073729;28;20167;-82
2021/01/21 12:49:57;;;;;;;8.10;2.37;;;8.70;99.90;;;;;;5072606;28;20182;-80
2021/01/21 12:52:23;;;;;;;10.60;2.17;;;8.70;99.90;;;;;;5072971;28;20175;-80
2021/01/21 12:54:49;;;;;;;6.83;2.27;;;8.80;99.90;;;;;;5081595;28;20183;-79
2021/01/21 12:57:17;;;;;;;9.47;2.70;;;8.90;99.90;;;;;;5094364;28;20535;-79